Avalon — PBSF — position and weather

sailwx.info

Track history (hours):
 
Tides and Currents Weather Stations Pressure Air Temp Water Temp Dewpoint Dewpoint Depression Visibility Wind Speed Wind Dir Waves Ship Positions

Avalon

Last reported at 2015-Sep-04 20:33 UTC. Time now 2015-Sep-04 21:07 UTC.
Position N 51°37' E 002°12'.

Length 89 m; draft 5.8 m.

Type: Cargo ship. MMSI: 246578000.

Date/timePositionNaut miles runAvg speedWind from/ knotsBaromVisibWave heightAir tempDewpointWater temp
2015-Sep-04 20:33N 51°37' E 002°12'137 7.0
2015-Sep-04 01:06N 53°23' E 004°35'3 5.9
2015-Sep-04 00:33N 53°23' E 004°40'6 6.2
2015-Sep-03 23:33N 53°21' E 004°50'5 5.4
2015-Sep-03 22:33N 53°19' E 004°58'5 5.2
2015-Sep-03 21:33N 53°19' E 005°07'6 5.6
2015-Sep-03 20:33N 53°14' E 005°11'6 6.4
2015-Sep-03 19:33N 53°11' E 005°20'3 3.1
2015-Sep-03 18:31N 53°11' E 005°26'0 0.0
2015-Sep-03 17:31N 53°11' E 005°26'0 0.0
2015-Sep-03 16:31N 53°11' E 005°26'0 0.1
2015-Sep-03 15:31N 53°11' E 005°26'0 0.0
2015-Sep-03 14:31N 53°11' E 005°26'0 0.0
2015-Sep-03 13:31N 53°11' E 005°26'0 0.0
2015-Sep-03 12:31N 53°11' E 005°26'0 0.1
2015-Sep-03 11:31N 53°11' E 005°26'0 0.0
2015-Sep-03 10:31N 53°11' E 005°26'0 0.0
2015-Sep-03 09:31N 53°11' E 005°26'0 0.0
2015-Sep-03 08:31N 53°11' E 005°26'0 0.0
2015-Sep-03 07:34N 53°11' E 005°26'2 2.4
2015-Sep-03 06:34N 53°11' E 005°22'9 8.5
2015-Sep-03 05:34N 53°16' E 005°10'6 6.3
2015-Sep-03 04:34N 53°19' E 005°00'9 8.9
2015-Sep-03 03:34N 53°21' E 004°46'8 7.9
2015-Sep-03 02:33N 53°27' E 004°37'10 9.7
2015-Sep-03 01:33N 53°31' E 004°52'10 9.6
2015-Sep-03 00:34N 53°34' E 005°07'9 8.9
2015-Sep-02 23:34N 53°37' E 005°21'8 8.0
2015-Sep-02 22:34N 53°40' E 005°34'8 7.9
2015-Sep-02 21:33N 53°42' E 005°47'7 6.9
2015-Sep-02 20:34N 53°43' E 005°58'6 6.4
2015-Sep-02 19:33N 53°38' E 006°05'8 8.5
2015-Sep-02 18:34N 53°37' E 006°19'10 9.5
2015-Sep-02 17:33N 53°36' E 006°35'1212.4
2015-Sep-02 16:34N 53°28' E 006°51'1010.4
2015-Sep-02 15:33N 53°19' E 006°59'2 1.8
2015-Sep-02 14:32N 53°20' E 006°56'0 0.0
2015-Sep-02 13:32N 53°20' E 006°56'0 0.0
2015-Sep-02 12:31N 53°20' E 006°56'0 0.0
2015-Sep-02 11:32N 53°20' E 006°56'0 0.0
2015-Sep-02 10:31N 53°20' E 006°56'0 0.0
2015-Sep-02 09:31N 53°20' E 006°56'0 0.0
2015-Sep-02 08:31N 53°20' E 006°56'0 0.0
2015-Sep-02 07:31N 53°20' E 006°56'0 0.0
2015-Sep-02 06:31N 53°20' E 006°56'0 0.0
2015-Sep-02 05:31N 53°20' E 006°56'0 0.0
2015-Sep-02 04:31N 53°20' E 006°56'0 0.0
2015-Sep-02 03:31N 53°20' E 006°56'0 0.0
2015-Sep-02 02:31N 53°20' E 006°56'0 0.0
2015-Sep-02 01:31N 53°20' E 006°56'0 0.0
2015-Sep-02 00:31N 53°20' E 006°56'0 0.0
2015-Sep-01 23:31N 53°20' E 006°56'0 0.0
2015-Sep-01 22:31N 53°20' E 006°56'0 0.0
2015-Sep-01 21:31N 53°20' E 006°56'0 0.0
2015-Sep-01 20:31N 53°20' E 006°56'0 0.0
2015-Sep-01 19:28N 53°20' E 006°56'0 0.0
2015-Sep-01 18:31N 53°20' E 006°56'0 0.0
2015-Sep-01 17:31N 53°20' E 006°56'0 0.0
2015-Sep-01 16:31N 53°20' E 006°56'0 0.0
2015-Sep-01 15:31N 53°20' E 006°56'0 0.0
2015-Sep-01 14:31N 53°20' E 006°56'0 0.0
2015-Sep-01 13:31N 53°20' E 006°56'0 0.0
2015-Sep-01 12:31N 53°20' E 006°56'0 0.0
2015-Sep-01 11:31N 53°20' E 006°56'0 0.0
2015-Sep-01 10:31N 53°20' E 006°56'0 0.0
2015-Sep-01 09:31N 53°20' E 006°56'0 0.0
2015-Sep-01 08:31N 53°20' E 006°56'0 0.0
2015-Sep-01 07:31N 53°20' E 006°56'0 0.0
2015-Sep-01 06:31N 53°20' E 006°56'0 0.0
2015-Sep-01 05:31N 53°20' E 006°56'0 0.0
2015-Sep-01 04:31N 53°20' E 006°56'0 0.0
2015-Sep-01 03:31N 53°20' E 006°56'0 0.0
2015-Sep-01 02:31N 53°20' E 006°56'0 0.0
2015-Sep-01 01:31N 53°20' E 006°56'0 0.0
2015-Sep-01 00:31N 53°20' E 006°56'0 0.0
2015-Aug-31 23:31N 53°20' E 006°56'0 0.0
2015-Aug-31 22:31N 53°20' E 006°56'0 0.0
2015-Aug-31 21:31N 53°20' E 006°56'0 0.0
2015-Aug-31 20:31N 53°20' E 006°56'0 0.0
2015-Aug-31 19:31N 53°20' E 006°56'0 0.0
2015-Aug-31 18:31N 53°20' E 006°56'0 0.0
2015-Aug-31 17:31N 53°20' E 006°56'0 0.0
2015-Aug-31 16:31N 53°20' E 006°56'0 0.0
2015-Aug-31 15:31N 53°20' E 006°56'0 0.0
2015-Aug-31 14:28N 53°20' E 006°56'0 0.0
2015-Aug-31 13:31N 53°20' E 006°56'0 0.0
2015-Aug-31 12:33N 53°20' E 006°56'0 0.0
2015-Aug-31 11:33N 53°20' E 006°56'0 0.0
2015-Aug-31 10:33N 53°20' E 006°56'0 0.0
2015-Aug-31 09:33N 53°20' E 006°56'0 0.0
2015-Aug-31 08:33N 53°20' E 006°56'0 0.0
2015-Aug-31 07:33N 53°20' E 006°56'0 0.0
2015-Aug-31 06:33N 53°20' E 006°56'0 0.0
2015-Aug-31 05:33N 53°20' E 006°56'0 0.0
2015-Aug-31 04:33N 53°20' E 006°56'0 0.0
2015-Aug-31 03:33N 53°20' E 006°56'0 0.0
2015-Aug-31 02:33N 53°20' E 006°56'0 0.0
2015-Aug-31 01:33N 53°20' E 006°56'0 0.0
2015-Aug-31 00:33N 53°20' E 006°56'0 0.0
2015-Aug-30 23:33N 53°20' E 006°56'0 0.0
2015-Aug-30 22:33N 53°20' E 006°56'0 0.0
2015-Aug-30 21:33N 53°20' E 006°56'0 0.0
2015-Aug-30 20:33N 53°20' E 006°56'0 0.0
2015-Aug-30 19:33N 53°20' E 006°56'0 0.0
2015-Aug-30 18:33N 53°20' E 006°56'0 0.0
2015-Aug-30 17:33N 53°20' E 006°56'0 0.0
2015-Aug-30 16:33N 53°20' E 006°56'0 0.0
2015-Aug-30 15:33N 53°20' E 006°56'0 0.0
2015-Aug-30 14:33N 53°20' E 006°56'0 0.0
2015-Aug-30 13:33N 53°20' E 006°56'0 0.0
2015-Aug-30 12:33N 53°20' E 006°56'0 0.0
2015-Aug-30 11:33N 53°20' E 006°56'0 0.0
2015-Aug-30 10:33N 53°20' E 006°56'0 0.0
2015-Aug-30 09:33N 53°20' E 006°56'0 0.0
2015-Aug-30 08:33N 53°20' E 006°56'0 0.0
2015-Aug-30 07:33N 53°20' E 006°56'0 0.0
2015-Aug-30 06:33N 53°20' E 006°56'0 0.0
2015-Aug-30 05:33N 53°20' E 006°56'0 0.0
2015-Aug-30 04:33N 53°20' E 006°56'0 0.0
2015-Aug-30 03:33N 53°20' E 006°56'0 0.0
2015-Aug-30 02:33N 53°20' E 006°56'0 0.0
2015-Aug-30 01:33N 53°20' E 006°56'0 0.0
2015-Aug-30 00:33N 53°20' E 006°56'0 0.0
2015-Aug-29 23:33N 53°20' E 006°56'0 0.0
2015-Aug-29 22:33N 53°20' E 006°56'0 0.0
2015-Aug-29 21:33N 53°20' E 006°56'0 0.0
2015-Aug-29 20:33N 53°20' E 006°56'0 0.0
2015-Aug-29 19:33N 53°20' E 006°56'0 0.0
2015-Aug-29 18:33N 53°20' E 006°56'0 0.0
2015-Aug-29 17:33N 53°20' E 006°56'0 0.0
2015-Aug-29 16:33N 53°20' E 006°56'0 0.0
2015-Aug-29 15:33N 53°20' E 006°56'0 0.0
2015-Aug-29 14:33N 53°20' E 006°56'0 0.0
2015-Aug-29 13:33N 53°20' E 006°56'0 0.0
2015-Aug-29 12:33N 53°20' E 006°56'0 0.0
2015-Aug-29 11:33N 53°20' E 006°56'0 0.0
2015-Aug-29 10:33N 53°20' E 006°56'0 0.0
2015-Aug-29 09:33N 53°20' E 006°56'0 0.0
2015-Aug-29 08:33N 53°20' E 006°56'0 0.0
2015-Aug-29 07:33N 53°20' E 006°56'0 0.0
2015-Aug-29 06:33N 53°20' E 006°56'0 0.0
2015-Aug-29 05:33N 53°20' E 006°56'0 0.0
2015-Aug-29 04:33N 53°20' E 006°56'0 0.0
2015-Aug-29 03:33N 53°20' E 006°56'0 0.0
2015-Aug-29 02:33N 53°20' E 006°56'0 0.0
2015-Aug-29 01:33N 53°20' E 006°56'0 0.0
2015-Aug-29 00:33N 53°20' E 006°56'0 0.0
2015-Aug-28 23:33N 53°20' E 006°56'0 0.0
2015-Aug-28 22:33N 53°20' E 006°56'0 0.0
2015-Aug-28 21:33N 53°20' E 006°56'0 0.0
2015-Aug-28 20:33N 53°20' E 006°56'0 0.0
2015-Aug-28 19:33N 53°20' E 006°56'0 0.0
2015-Aug-28 18:33N 53°20' E 006°56'0 0.0
2015-Aug-28 17:33N 53°20' E 006°56'0 0.0
2015-Aug-28 16:33N 53°20' E 006°56'0 0.0
2015-Aug-28 15:33N 53°20' E 006°56'0 0.0
2015-Aug-28 14:33N 53°20' E 006°56'0 0.0
2015-Aug-28 13:33N 53°20' E 006°56'0 0.0
2015-Aug-28 12:33N 53°20' E 006°56'0 0.0
2015-Aug-28 11:33N 53°20' E 006°56'0 0.0
2015-Aug-28 10:33N 53°20' E 006°56'0 0.0
2015-Aug-28 09:33N 53°20' E 006°56'0 0.0
2015-Aug-28 08:33N 53°20' E 006°56'0 0.0
2015-Aug-28 07:33N 53°20' E 006°56'0 0.0
2015-Aug-28 06:33N 53°20' E 006°56'0 0.0
2015-Aug-28 05:33N 53°20' E 006°56'0 0.0
2015-Aug-28 04:33N 53°20' E 006°56'0 0.0
2015-Aug-28 03:33N 53°20' E 006°56'0 0.0
2015-Aug-28 02:33N 53°20' E 006°56'0 0.0
2015-Aug-28 01:33N 53°20' E 006°56'0 0.0
2015-Aug-28 00:33N 53°20' E 006°56'0 0.0
2015-Aug-27 23:33N 53°20' E 006°56'0 0.0
2015-Aug-27 22:33N 53°20' E 006°56'0 0.0
2015-Aug-27 21:33N 53°20' E 006°56'0 0.0
2015-Aug-27 20:33N 53°20' E 006°56'0 0.0
2015-Aug-27 19:33N 53°20' E 006°56'0 0.0
2015-Aug-27 18:33N 53°20' E 006°56'0 0.0
2015-Aug-27 17:33N 53°20' E 006°56'0 0.0
2015-Aug-27 16:33N 53°20' E 006°56'0 0.0
2015-Aug-27 15:33N 53°20' E 006°56'0 0.0
2015-Aug-27 14:33N 53°20' E 006°56'0 0.0
2015-Aug-27 13:33N 53°20' E 006°56'0 0.0
2015-Aug-27 12:33N 53°20' E 006°56'0 0.0
2015-Aug-27 11:33N 53°20' E 006°56'0 0.0
2015-Aug-27 10:33N 53°20' E 006°56'0 0.0
2015-Aug-27 09:33N 53°20' E 006°56'0 0.0
2015-Aug-27 08:33N 53°20' E 006°56'0 0.0
2015-Aug-27 07:33N 53°20' E 006°56'0 0.0
2015-Aug-27 06:33N 53°20' E 006°56'0 0.0
2015-Aug-27 05:33N 53°20' E 006°56'0 0.0
2015-Aug-27 04:33N 53°20' E 006°56'0 0.0
2015-Aug-27 03:33N 53°20' E 006°56'0 0.0
2015-Aug-27 02:33N 53°20' E 006°56'0 0.0
2015-Aug-27 01:33N 53°20' E 006°56'0 0.0
2015-Aug-27 00:27N 53°20' E 006°56'0 0.0
2015-Aug-26 23:33N 53°20' E 006°56'0 0.0
2015-Aug-26 22:33N 53°20' E 006°56'0 0.0
2015-Aug-26 21:33N 53°20' E 006°56'0 0.0
2015-Aug-26 20:33N 53°20' E 006°56'0 0.0
2015-Aug-26 19:33N 53°20' E 006°56'0 0.0
2015-Aug-26 18:33N 53°20' E 006°56'0 0.0
2015-Aug-26 17:33N 53°20' E 006°56'0 0.0
2015-Aug-26 16:33N 53°20' E 006°56'0 0.0
2015-Aug-26 15:33N 53°20' E 006°56'0 0.0
2015-Aug-26 14:33N 53°20' E 006°56'0 0.0
2015-Aug-26 13:33N 53°20' E 006°56'0 0.0
2015-Aug-26 12:33N 53°20' E 006°56'0 0.0
2015-Aug-26 11:30N 53°20' E 006°56'0 0.0
2015-Aug-26 10:33N 53°20' E 006°56'0 0.0
2015-Aug-26 09:33N 53°20' E 006°56'0 0.0
2015-Aug-26 08:33N 53°20' E 006°56'0 0.0
2015-Aug-26 07:33N 53°20' E 006°56'0 0.0
2015-Aug-26 06:33N 53°20' E 006°56'0 0.0
2015-Aug-26 05:33N 53°20' E 006°56'0 0.0
2015-Aug-26 04:33N 53°20' E 006°56'0 0.0
2015-Aug-26 03:33N 53°20' E 006°56'0 0.0
2015-Aug-26 02:33N 53°20' E 006°56'0 0.0
2015-Aug-26 01:33N 53°20' E 006°56'0 0.0
2015-Aug-26 00:33N 53°20' E 006°56'0 0.0
2015-Aug-25 23:33N 53°20' E 006°56'0 0.0
2015-Aug-25 22:33N 53°20' E 006°56'0 0.0
2015-Aug-25 21:33N 53°20' E 006°56'  
Track history (hours):
 
Tides and Currents Weather Stations Pressure Air Temp Water Temp Dewpoint Dewpoint Depression Visibility Wind Speed Wind Dir Waves Ship Positions

Avalon

Last reported at 2015-Sep-04 20:33 UTC. Time now 2015-Sep-04 21:07 UTC.
Position N 51°37' E 002°12'.

Length 89 m; draft 5.8 m.

Type: Cargo ship. MMSI: 246578000.

Date/timePositionNaut miles runAvg speedWind from/ knotsBaromVisibWave heightAir tempDewpointWater temp
2015-Sep-04 20:33N 51°37' E 002°12'137 7.0
2015-Sep-04 01:06N 53°23' E 004°35'3 5.9
2015-Sep-04 00:33N 53°23' E 004°40'6 6.2
2015-Sep-03 23:33N 53°21' E 004°50'5 5.4
2015-Sep-03 22:33N 53°19' E 004°58'5 5.2
2015-Sep-03 21:33N 53°19' E 005°07'6 5.6
2015-Sep-03 20:33N 53°14' E 005°11'6 6.4
2015-Sep-03 19:33N 53°11' E 005°20'3 3.1
2015-Sep-03 18:31N 53°11' E 005°26'0 0.0
2015-Sep-03 17:31N 53°11' E 005°26'0 0.0
2015-Sep-03 16:31N 53°11' E 005°26'0 0.1
2015-Sep-03 15:31N 53°11' E 005°26'0 0.0
2015-Sep-03 14:31N 53°11' E 005°26'0 0.0
2015-Sep-03 13:31N 53°11' E 005°26'0 0.0
2015-Sep-03 12:31N 53°11' E 005°26'0 0.1
2015-Sep-03 11:31N 53°11' E 005°26'0 0.0
2015-Sep-03 10:31N 53°11' E 005°26'0 0.0
2015-Sep-03 09:31N 53°11' E 005°26'0 0.0
2015-Sep-03 08:31N 53°11' E 005°26'0 0.0
2015-Sep-03 07:34N 53°11' E 005°26'2 2.4
2015-Sep-03 06:34N 53°11' E 005°22'9 8.5
2015-Sep-03 05:34N 53°16' E 005°10'6 6.3
2015-Sep-03 04:34N 53°19' E 005°00'9 8.9
2015-Sep-03 03:34N 53°21' E 004°46'8 7.9
2015-Sep-03 02:33N 53°27' E 004°37'10 9.7
2015-Sep-03 01:33N 53°31' E 004°52'10 9.6
2015-Sep-03 00:34N 53°34' E 005°07'9 8.9
2015-Sep-02 23:34N 53°37' E 005°21'8 8.0
2015-Sep-02 22:34N 53°40' E 005°34'8 7.9
2015-Sep-02 21:33N 53°42' E 005°47'7 6.9
2015-Sep-02 20:34N 53°43' E 005°58'6 6.4
2015-Sep-02 19:33N 53°38' E 006°05'8 8.5
2015-Sep-02 18:34N 53°37' E 006°19'10 9.5
2015-Sep-02 17:33N 53°36' E 006°35'1212.4
2015-Sep-02 16:34N 53°28' E 006°51'1010.4
2015-Sep-02 15:33N 53°19' E 006°59'2 1.8
2015-Sep-02 14:32N 53°20' E 006°56'0 0.0
2015-Sep-02 13:32N 53°20' E 006°56'0 0.0
2015-Sep-02 12:31N 53°20' E 006°56'0 0.0
2015-Sep-02 11:32N 53°20' E 006°56'0 0.0
2015-Sep-02 10:31N 53°20' E 006°56'0 0.0
2015-Sep-02 09:31N 53°20' E 006°56'0 0.0
2015-Sep-02 08:31N 53°20' E 006°56'0 0.0
2015-Sep-02 07:31N 53°20' E 006°56'0 0.0
2015-Sep-02 06:31N 53°20' E 006°56'0 0.0
2015-Sep-02 05:31N 53°20' E 006°56'0 0.0
2015-Sep-02 04:31N 53°20' E 006°56'0 0.0
2015-Sep-02 03:31N 53°20' E 006°56'0 0.0
2015-Sep-02 02:31N 53°20' E 006°56'0 0.0
2015-Sep-02 01:31N 53°20' E 006°56'0 0.0
2015-Sep-02 00:31N 53°20' E 006°56'0 0.0
2015-Sep-01 23:31N 53°20' E 006°56'0 0.0
2015-Sep-01 22:31N 53°20' E 006°56'0 0.0
2015-Sep-01 21:31N 53°20' E 006°56'0 0.0
2015-Sep-01 20:31N 53°20' E 006°56'0 0.0
2015-Sep-01 19:28N 53°20' E 006°56'0 0.0
2015-Sep-01 18:31N 53°20' E 006°56'0 0.0
2015-Sep-01 17:31N 53°20' E 006°56'0 0.0
2015-Sep-01 16:31N 53°20' E 006°56'0 0.0
2015-Sep-01 15:31N 53°20' E 006°56'0 0.0
2015-Sep-01 14:31N 53°20' E 006°56'0 0.0
2015-Sep-01 13:31N 53°20' E 006°56'0 0.0
2015-Sep-01 12:31N 53°20' E 006°56'0 0.0
2015-Sep-01 11:31N 53°20' E 006°56'0 0.0
2015-Sep-01 10:31N 53°20' E 006°56'0 0.0
2015-Sep-01 09:31N 53°20' E 006°56'0 0.0
2015-Sep-01 08:31N 53°20' E 006°56'0 0.0
2015-Sep-01 07:31N 53°20' E 006°56'0 0.0
2015-Sep-01 06:31N 53°20' E 006°56'0 0.0
2015-Sep-01 05:31N 53°20' E 006°56'0 0.0
2015-Sep-01 04:31N 53°20' E 006°56'0 0.0
2015-Sep-01 03:31N 53°20' E 006°56'0 0.0
2015-Sep-01 02:31N 53°20' E 006°56'0 0.0
2015-Sep-01 01:31N 53°20' E 006°56'0 0.0
2015-Sep-01 00:31N 53°20' E 006°56'0 0.0
2015-Aug-31 23:31N 53°20' E 006°56'0 0.0
2015-Aug-31 22:31N 53°20' E 006°56'0 0.0
2015-Aug-31 21:31N 53°20' E 006°56'0 0.0
2015-Aug-31 20:31N 53°20' E 006°56'0 0.0
2015-Aug-31 19:31N 53°20' E 006°56'0 0.0
2015-Aug-31 18:31N 53°20' E 006°56'0 0.0
2015-Aug-31 17:31N 53°20' E 006°56'0 0.0
2015-Aug-31 16:31N 53°20' E 006°56'0 0.0
2015-Aug-31 15:31N 53°20' E 006°56'0 0.0
2015-Aug-31 14:28N 53°20' E 006°56'0 0.0
2015-Aug-31 13:31N 53°20' E 006°56'0 0.0
2015-Aug-31 12:33N 53°20' E 006°56'0 0.0
2015-Aug-31 11:33N 53°20' E 006°56'0 0.0
2015-Aug-31 10:33N 53°20' E 006°56'0 0.0
2015-Aug-31 09:33N 53°20' E 006°56'0 0.0
2015-Aug-31 08:33N 53°20' E 006°56'0 0.0
2015-Aug-31 07:33N 53°20' E 006°56'0 0.0
2015-Aug-31 06:33N 53°20' E 006°56'0 0.0
2015-Aug-31 05:33N 53°20' E 006°56'0 0.0
2015-Aug-31 04:33N 53°20' E 006°56'0 0.0
2015-Aug-31 03:33N 53°20' E 006°56'0 0.0
2015-Aug-31 02:33N 53°20' E 006°56'0 0.0
2015-Aug-31 01:33N 53°20' E 006°56'0 0.0
2015-Aug-31 00:33N 53°20' E 006°56'0 0.0
2015-Aug-30 23:33N 53°20' E 006°56'0 0.0
2015-Aug-30 22:33N 53°20' E 006°56'0 0.0
2015-Aug-30 21:33N 53°20' E 006°56'0 0.0
2015-Aug-30 20:33N 53°20' E 006°56'0 0.0
2015-Aug-30 19:33N 53°20' E 006°56'0 0.0
2015-Aug-30 18:33N 53°20' E 006°56'0 0.0
2015-Aug-30 17:33N 53°20' E 006°56'0 0.0
2015-Aug-30 16:33N 53°20' E 006°56'0 0.0
2015-Aug-30 15:33N 53°20' E 006°56'0 0.0
2015-Aug-30 14:33N 53°20' E 006°56'0 0.0
2015-Aug-30 13:33N 53°20' E 006°56'0 0.0
2015-Aug-30 12:33N 53°20' E 006°56'0 0.0
2015-Aug-30 11:33N 53°20' E 006°56'0 0.0
2015-Aug-30 10:33N 53°20' E 006°56'0 0.0
2015-Aug-30 09:33N 53°20' E 006°56'0 0.0
2015-Aug-30 08:33N 53°20' E 006°56'0 0.0
2015-Aug-30 07:33N 53°20' E 006°56'0 0.0
2015-Aug-30 06:33N 53°20' E 006°56'0 0.0
2015-Aug-30 05:33N 53°20' E 006°56'0 0.0
2015-Aug-30 04:33N 53°20' E 006°56'0 0.0
2015-Aug-30 03:33N 53°20' E 006°56'0 0.0
2015-Aug-30 02:33N 53°20' E 006°56'0 0.0
2015-Aug-30 01:33N 53°20' E 006°56'0 0.0
2015-Aug-30 00:33N 53°20' E 006°56'0 0.0
2015-Aug-29 23:33N 53°20' E 006°56'0 0.0
2015-Aug-29 22:33N 53°20' E 006°56'0 0.0
2015-Aug-29 21:33N 53°20' E 006°56'0 0.0
2015-Aug-29 20:33N 53°20' E 006°56'0 0.0
2015-Aug-29 19:33N 53°20' E 006°56'0 0.0
2015-Aug-29 18:33N 53°20' E 006°56'0 0.0
2015-Aug-29 17:33N 53°20' E 006°56'0 0.0
2015-Aug-29 16:33N 53°20' E 006°56'0 0.0
2015-Aug-29 15:33N 53°20' E 006°56'0 0.0
2015-Aug-29 14:33N 53°20' E 006°56'0 0.0
2015-Aug-29 13:33N 53°20' E 006°56'0 0.0
2015-Aug-29 12:33N 53°20' E 006°56'0 0.0
2015-Aug-29 11:33N 53°20' E 006°56'0 0.0
2015-Aug-29 10:33N 53°20' E 006°56'0 0.0
2015-Aug-29 09:33N 53°20' E 006°56'0 0.0
2015-Aug-29 08:33N 53°20' E 006°56'0 0.0
2015-Aug-29 07:33N 53°20' E 006°56'0 0.0
2015-Aug-29 06:33N 53°20' E 006°56'0 0.0
2015-Aug-29 05:33N 53°20' E 006°56'0 0.0
2015-Aug-29 04:33N 53°20' E 006°56'0 0.0
2015-Aug-29 03:33N 53°20' E 006°56'0 0.0
2015-Aug-29 02:33N 53°20' E 006°56'0 0.0
2015-Aug-29 01:33N 53°20' E 006°56'0 0.0
2015-Aug-29 00:33N 53°20' E 006°56'0 0.0
2015-Aug-28 23:33N 53°20' E 006°56'0 0.0
2015-Aug-28 22:33N 53°20' E 006°56'0 0.0
2015-Aug-28 21:33N 53°20' E 006°56'0 0.0
2015-Aug-28 20:33N 53°20' E 006°56'0 0.0
2015-Aug-28 19:33N 53°20' E 006°56'0 0.0
2015-Aug-28 18:33N 53°20' E 006°56'0 0.0
2015-Aug-28 17:33N 53°20' E 006°56'0 0.0
2015-Aug-28 16:33N 53°20' E 006°56'0 0.0
2015-Aug-28 15:33N 53°20' E 006°56'0 0.0
2015-Aug-28 14:33N 53°20' E 006°56'0 0.0
2015-Aug-28 13:33N 53°20' E 006°56'0 0.0
2015-Aug-28 12:33N 53°20' E 006°56'0 0.0
2015-Aug-28 11:33N 53°20' E 006°56'0 0.0
2015-Aug-28 10:33N 53°20' E 006°56'0 0.0
2015-Aug-28 09:33N 53°20' E 006°56'0 0.0
2015-Aug-28 08:33N 53°20' E 006°56'0 0.0
2015-Aug-28 07:33N 53°20' E 006°56'0 0.0
2015-Aug-28 06:33N 53°20' E 006°56'0 0.0
2015-Aug-28 05:33N 53°20' E 006°56'0 0.0
2015-Aug-28 04:33N 53°20' E 006°56'0 0.0
2015-Aug-28 03:33N 53°20' E 006°56'0 0.0
2015-Aug-28 02:33N 53°20' E 006°56'0 0.0
2015-Aug-28 01:33N 53°20' E 006°56'0 0.0
2015-Aug-28 00:33N 53°20' E 006°56'0 0.0
2015-Aug-27 23:33N 53°20' E 006°56'0 0.0
2015-Aug-27 22:33N 53°20' E 006°56'0 0.0
2015-Aug-27 21:33N 53°20' E 006°56'0 0.0
2015-Aug-27 20:33N 53°20' E 006°56'0 0.0
2015-Aug-27 19:33N 53°20' E 006°56'0 0.0
2015-Aug-27 18:33N 53°20' E 006°56'0 0.0
2015-Aug-27 17:33N 53°20' E 006°56'0 0.0
2015-Aug-27 16:33N 53°20' E 006°56'0 0.0
2015-Aug-27 15:33N 53°20' E 006°56'0 0.0
2015-Aug-27 14:33N 53°20' E 006°56'0 0.0
2015-Aug-27 13:33N 53°20' E 006°56'0 0.0
2015-Aug-27 12:33N 53°20' E 006°56'0 0.0
2015-Aug-27 11:33N 53°20' E 006°56'0 0.0
2015-Aug-27 10:33N 53°20' E 006°56'0 0.0
2015-Aug-27 09:33N 53°20' E 006°56'0 0.0
2015-Aug-27 08:33N 53°20' E 006°56'0 0.0
2015-Aug-27 07:33N 53°20' E 006°56'0 0.0
2015-Aug-27 06:33N 53°20' E 006°56'0 0.0
2015-Aug-27 05:33N 53°20' E 006°56'0 0.0
2015-Aug-27 04:33N 53°20' E 006°56'0 0.0
2015-Aug-27 03:33N 53°20' E 006°56'0 0.0
2015-Aug-27 02:33N 53°20' E 006°56'0 0.0
2015-Aug-27 01:33N 53°20' E 006°56'0 0.0
2015-Aug-27 00:27N 53°20' E 006°56'0 0.0
2015-Aug-26 23:33N 53°20' E 006°56'0 0.0
2015-Aug-26 22:33N 53°20' E 006°56'0 0.0
2015-Aug-26 21:33N 53°20' E 006°56'0 0.0
2015-Aug-26 20:33N 53°20' E 006°56'0 0.0
2015-Aug-26 19:33N 53°20' E 006°56'0 0.0
2015-Aug-26 18:33N 53°20' E 006°56'0 0.0
2015-Aug-26 17:33N 53°20' E 006°56'0 0.0
2015-Aug-26 16:33N 53°20' E 006°56'0 0.0
2015-Aug-26 15:33N 53°20' E 006°56'0 0.0
2015-Aug-26 14:33N 53°20' E 006°56'0 0.0
2015-Aug-26 13:33N 53°20' E 006°56'0 0.0
2015-Aug-26 12:33N 53°20' E 006°56'0 0.0
2015-Aug-26 11:30N 53°20' E 006°56'0 0.0
2015-Aug-26 10:33N 53°20' E 006°56'0 0.0
2015-Aug-26 09:33N 53°20' E 006°56'0 0.0
2015-Aug-26 08:33N 53°20' E 006°56'0 0.0
2015-Aug-26 07:33N 53°20' E 006°56'0 0.0
2015-Aug-26 06:33N 53°20' E 006°56'0 0.0
2015-Aug-26 05:33N 53°20' E 006°56'0 0.0
2015-Aug-26 04:33N 53°20' E 006°56'0 0.0
2015-Aug-26 03:33N 53°20' E 006°56'0 0.0
2015-Aug-26 02:33N 53°20' E 006°56'0 0.0
2015-Aug-26 01:33N 53°20' E 006°56'0 0.0
2015-Aug-26 00:33N 53°20' E 006°56'0 0.0
2015-Aug-25 23:33N 53°20' E 006°56'0 0.0
2015-Aug-25 22:33N 53°20' E 006°56'0 0.0
2015-Aug-25 21:33N 53°20' E 006°56'  

Dump ship's entire track history